DK-0033 weather

Bjedstrup Airstrip
Bjedstrup, Denmark

Public forecast

Using degrees Celsius for public forecast. Weather courtesy of forecast.io.

Closest aviation weather report (METAR) to Bjedstrup Airstrip

Closest report is Karup Airport, 28.3 nm (52.4 km) WNW. Retrieved 2020/01/21 13:32 UTC (0 seconds ago):

EKKA 211332Z 26015KT 4000 -RADZ BKN007 08/07 Q1032 BECMG 8000 NSW SCT012 BKN015

Closest aviation forecast (TAF) to Bjedstrup Airstrip

Closest forecast is Karup Airport, 28.3 nm (52.4 km) WNW. Retrieved 2020/01/21 15:31 UTC (0 seconds ago):

TAF EKKA 211411Z 2115/2215 27012G25KT 4000 -RADZ BR BKN008 BECMG 2115/2116 28012KT 9999 NSW SCT200 TEMPO 2116/2118 BKN012 BECMG 2205/2208 33012G22KT BECMG 2210/2212 32012KT